createdAt,value
2023-03-06T00:00:57.307Z,3.8
2023-03-06T00:01:57.324Z,3.8
2023-03-06T00:02:57.313Z,3.8
2023-03-06T00:03:57.314Z,3.8
2023-03-06T00:04:57.286Z,3.8
2023-03-06T00:05:57.628Z,3.8
2023-03-06T00:06:57.289Z,3.8
2023-03-06T00:07:57.360Z,3.8
2023-03-06T00:08:57.298Z,3.8
2023-03-06T00:09:57.318Z,3.8
2023-03-06T00:10:57.355Z,3.8
2023-03-06T00:11:57.295Z,3.8
2023-03-06T00:12:57.310Z,3.8
2023-03-06T00:13:57.305Z,3.8
2023-03-06T00:14:57.359Z,3.8
2023-03-06T00:15:57.331Z,3.8
2023-03-06T00:16:57.301Z,3.8
2023-03-06T00:17:57.304Z,3.8
2023-03-06T00:18:57.309Z,3.8
2023-03-06T00:19:57.290Z,3.6
2023-03-06T00:20:57.365Z,3.6
2023-03-06T00:21:57.358Z,3.6
2023-03-06T00:22:57.311Z,3.6
2023-03-06T00:23:57.352Z,3.6
2023-03-06T00:24:57.311Z,3.6
2023-03-06T00:25:57.347Z,3.6
2023-03-06T00:26:57.316Z,3.6
2023-03-06T00:27:57.319Z,3.6
2023-03-06T00:28:57.299Z,3.6
2023-03-06T00:29:57.365Z,3.6
2023-03-06T00:30:57.300Z,3.6
2023-03-06T00:31:57.355Z,3.6
2023-03-06T00:32:57.296Z,3.6
2023-03-06T00:33:57.314Z,3.6
2023-03-06T00:34:57.304Z,3.6
2023-03-06T00:35:57.406Z,3.6
2023-03-06T00:36:57.351Z,3.6
2023-03-06T00:37:57.309Z,3.6
2023-03-06T00:38:57.296Z,3.6
2023-03-06T00:39:57.323Z,3.6
2023-03-06T00:40:57.301Z,3.6
2023-03-06T00:41:57.368Z,3.6
2023-03-06T00:42:57.314Z,3.6
2023-03-06T00:43:57.321Z,3.6
2023-03-06T00:44:57.321Z,3.6
2023-03-06T00:45:57.339Z,3.6
2023-03-06T00:46:57.297Z,3.5
2023-03-06T00:47:57.320Z,3.5
2023-03-06T00:48:57.313Z,3.5
2023-03-06T00:49:57.301Z,3.5
2023-03-06T00:50:57.348Z,3.5
2023-03-06T00:51:57.330Z,3.5
2023-03-06T00:52:57.323Z,3.5
2023-03-06T00:53:57.317Z,3.5
2023-03-06T00:54:57.355Z,3.5
2023-03-06T00:55:57.324Z,3.5
2023-03-06T00:56:57.310Z,3.5
2023-03-06T00:57:57.359Z,3.5
2023-03-06T00:58:57.304Z,3.5
2023-03-06T00:59:57.334Z,3.5
2023-03-06T01:00:57.357Z,3.5
2023-03-06T01:01:57.372Z,3.5
2023-03-06T01:02:57.299Z,3.5
2023-03-06T01:03:57.365Z,3.5
2023-03-06T01:04:57.360Z,3.5
2023-03-06T01:05:57.314Z,3.5
2023-03-06T01:06:57.299Z,3.5
2023-03-06T01:07:57.313Z,3.5
2023-03-06T01:08:57.305Z,3.5
2023-03-06T01:09:57.333Z,3.5
2023-03-06T01:10:57.348Z,3.5
2023-03-06T01:11:57.305Z,3.5
2023-03-06T01:12:57.304Z,3.5
2023-03-06T01:13:57.320Z,3.5
2023-03-06T01:14:57.293Z,3.5
2023-03-06T01:15:57.524Z,3.5
2023-03-06T01:16:57.379Z,3.5
2023-03-06T01:17:57.364Z,3.5
2023-03-06T01:18:57.368Z,3.5
2023-03-06T01:19:57.351Z,3.5
2023-03-06T01:20:57.382Z,3.5
2023-03-06T01:21:57.401Z,3.5
2023-03-06T01:22:57.362Z,3.5
2023-03-06T01:23:57.327Z,3.5
2023-03-06T01:24:57.381Z,3.5
2023-03-06T01:25:57.372Z,3.5
2023-03-06T01:26:57.380Z,3.5
2023-03-06T01:27:57.361Z,3.5
2023-03-06T01:28:57.406Z,3.5
2023-03-06T01:29:57.369Z,3.5
2023-03-06T01:30:57.376Z,3.5
2023-03-06T01:31:57.436Z,3.5
2023-03-06T01:32:57.425Z,3.5
2023-03-06T01:33:57.376Z,3.5
2023-03-06T01:34:57.381Z,3.5
2023-03-06T01:35:57.445Z,3.5
2023-03-06T01:36:57.380Z,3.5
2023-03-06T01:37:57.403Z,3.5
2023-03-06T01:38:57.408Z,3.5
2023-03-06T01:39:57.396Z,3.5
2023-03-06T01:40:57.417Z,3.5
2023-03-06T01:41:57.368Z,3.5
2023-03-06T01:42:57.383Z,3.5
2023-03-06T01:43:57.397Z,3.5
2023-03-06T01:44:57.450Z,3.5
2023-03-06T01:45:57.405Z,3.5
2023-03-06T01:46:57.403Z,3.2
2023-03-06T01:47:57.362Z,3.2
2023-03-06T01:48:57.371Z,3.2
2023-03-06T01:49:57.362Z,3.2
2023-03-06T01:50:57.391Z,3.2
2023-03-06T01:51:57.411Z,3.2
2023-03-06T01:52:57.365Z,3.2
2023-03-06T01:53:57.412Z,3.2
2023-03-06T01:54:57.397Z,3.2
2023-03-06T01:55:57.373Z,3.2
2023-03-06T01:56:57.402Z,3.2
2023-03-06T01:57:57.360Z,3.2
2023-03-06T01:58:57.413Z,3.2
2023-03-06T01:59:57.364Z,3.2
2023-03-06T02:00:57.416Z,3.2
2023-03-06T02:01:57.428Z,3.2
2023-03-06T02:02:57.401Z,3.2
2023-03-06T02:03:57.383Z,3.2
2023-03-06T02:04:57.438Z,3.2
2023-03-06T02:05:57.403Z,3.2
2023-03-06T02:06:57.373Z,3.2
2023-03-06T02:07:57.363Z,3.2
2023-03-06T02:08:57.387Z,3.2
2023-03-06T02:09:57.379Z,3.2
2023-03-06T02:10:57.448Z,3.2
2023-03-06T02:11:57.382Z,3.2
2023-03-06T02:12:57.364Z,3.2
2023-03-06T02:13:57.383Z,3.2
2023-03-06T02:14:57.414Z,3.2
2023-03-06T02:15:57.367Z,3.2
2023-03-06T02:16:57.482Z,3.2
2023-03-06T02:17:57.403Z,3.2
2023-03-06T02:18:57.378Z,3.2
2023-03-06T02:19:57.375Z,3.2
2023-03-06T02:20:57.466Z,3.2
2023-03-06T02:21:57.479Z,3.2
2023-03-06T02:22:57.414Z,2.7
2023-03-06T02:23:57.387Z,2.7
2023-03-06T02:24:57.416Z,2.7
2023-03-06T02:25:57.418Z,2.7
2023-03-06T02:26:57.397Z,2.7
2023-03-06T02:27:57.432Z,2.7
2023-03-06T02:28:57.446Z,2.7
2023-03-06T02:29:57.426Z,2.7
2023-03-06T02:30:57.442Z,2.7
2023-03-06T02:31:57.441Z,2.7
2023-03-06T02:32:57.416Z,2.7
2023-03-06T02:33:57.406Z,2.7
2023-03-06T02:34:57.418Z,2.7
2023-03-06T02:35:57.421Z,2.7
2023-03-06T02:36:57.413Z,2.7
2023-03-06T02:37:57.444Z,2.7
2023-03-06T02:38:57.390Z,2.7
2023-03-06T02:39:57.420Z,2.7
2023-03-06T02:40:57.390Z,2.7
2023-03-06T02:41:57.440Z,2.7
2023-03-06T02:42:57.483Z,2.7
2023-03-06T02:43:57.431Z,2.7
2023-03-06T02:44:57.417Z,2.5
2023-03-06T02:45:57.452Z,2.5
2023-03-06T02:46:57.459Z,2.5
2023-03-06T02:47:57.494Z,2.5
2023-03-06T02:48:57.472Z,2.5
2023-03-06T02:49:57.438Z,2.5
2023-03-06T02:50:57.446Z,2.5
2023-03-06T02:51:57.431Z,2.5
2023-03-06T02:52:57.435Z,2.5
2023-03-06T02:53:57.434Z,2.5
2023-03-06T02:54:57.463Z,2.5
2023-03-06T02:55:57.432Z,2.5
2023-03-06T02:56:57.406Z,2.5
2023-03-06T02:57:57.450Z,2.5
2023-03-06T02:58:57.484Z,2.5
2023-03-06T02:59:57.456Z,2.5
2023-03-06T03:00:57.432Z,2.5
2023-03-06T03:01:57.445Z,2.5
2023-03-06T03:02:57.465Z,2.5
2023-03-06T03:03:57.492Z,2.5
2023-03-06T03:04:57.525Z,2.5
2023-03-06T03:05:57.450Z,2.5
2023-03-06T03:06:57.449Z,2.2
2023-03-06T03:07:57.457Z,2.2
2023-03-06T03:08:57.501Z,2.2
2023-03-06T03:09:57.451Z,2.2
2023-03-06T03:10:57.453Z,2.2
2023-03-06T03:11:57.448Z,2.2
2023-03-06T03:12:57.448Z,2.2
2023-03-06T03:13:57.441Z,2.2
2023-03-06T03:14:57.478Z,2.2
2023-03-06T03:15:57.537Z,2.2
2023-03-06T03:16:57.456Z,2.2
2023-03-06T03:17:57.451Z,2.2
2023-03-06T03:18:57.447Z,2.2
2023-03-06T03:19:57.451Z,2.2
2023-03-06T03:20:57.462Z,2.2
2023-03-06T03:21:57.467Z,2.2
2023-03-06T03:22:57.450Z,2.2
2023-03-06T03:23:57.460Z,2.2
2023-03-06T03:24:57.565Z,2.2
2023-03-06T03:25:57.511Z,1.7
2023-03-06T03:26:57.468Z,1.7
2023-03-06T03:27:57.471Z,1.7
2023-03-06T03:28:57.475Z,1.7
2023-03-06T03:29:57.464Z,1.7
2023-03-06T03:30:57.487Z,1.7
2023-03-06T03:31:57.498Z,1.7
2023-03-06T03:32:57.471Z,1.7
2023-03-06T03:33:57.462Z,1.7
2023-03-06T03:34:57.467Z,1.7
2023-03-06T03:35:57.504Z,1.7
2023-03-06T03:36:57.469Z,1.7
2023-03-06T03:37:57.521Z,1.7
2023-03-06T03:38:57.490Z,1.3
2023-03-06T03:39:57.475Z,1.3
2023-03-06T03:40:57.541Z,1.3
2023-03-06T03:41:57.493Z,1.3
2023-03-06T03:42:57.476Z,1.1
2023-03-06T03:43:57.477Z,1.1
2023-03-06T03:44:57.492Z,1.1
2023-03-06T03:45:57.488Z,1.1
2023-03-06T03:46:57.486Z,1.1
2023-03-06T03:47:57.461Z,1.1
2023-03-06T03:48:57.551Z,1.1
2023-03-06T03:49:57.478Z,1.1
2023-03-06T03:50:57.499Z,1.1
2023-03-06T03:51:57.485Z,1.1
2023-03-06T03:52:57.500Z,1.1
2023-03-06T03:53:57.476Z,1.1
2023-03-06T03:54:57.516Z,1.1
2023-03-06T03:55:57.493Z,1.1
2023-03-06T03:56:57.485Z,1.1
2023-03-06T03:57:57.481Z,1.1
2023-03-06T03:58:57.499Z,1.1
2023-03-06T03:59:57.502Z,1.1
2023-03-06T04:00:57.578Z,1.1
2023-03-06T04:01:57.486Z,1.1
2023-03-06T04:02:57.498Z,1.1
2023-03-06T04:03:57.467Z,1.1
2023-03-06T04:04:57.604Z,0.8
2023-03-06T04:05:57.529Z,0.8
2023-03-06T04:06:57.526Z,0.8
2023-03-06T04:07:57.514Z,0.8
2023-03-06T04:08:57.516Z,0.8
2023-03-06T04:09:57.493Z,0.8
2023-03-06T04:10:57.499Z,0.8
2023-03-06T04:11:57.539Z,0.8
2023-03-06T04:12:57.496Z,0.8
2023-03-06T04:13:57.492Z,0.8
2023-03-06T04:14:57.534Z,0.8
2023-03-06T04:15:57.539Z,0.8
2023-03-06T04:16:57.528Z,0.8
2023-03-06T04:17:57.531Z,0.8
2023-03-06T04:18:57.482Z,0.8
2023-03-06T04:19:57.515Z,0.8
2023-03-06T04:20:57.520Z,0.8
2023-03-06T04:21:57.515Z,0.8
2023-03-06T04:22:57.527Z,0.8
2023-03-06T04:23:57.496Z,0.8
2023-03-06T04:24:57.534Z,0.8
2023-03-06T04:25:57.536Z,0.8
2023-03-06T04:26:57.526Z,0.8
2023-03-06T04:27:57.521Z,0.8
2023-03-06T04:28:57.500Z,0.8
2023-03-06T04:29:57.576Z,0.8
2023-03-06T04:30:57.530Z,0.8
2023-03-06T04:31:57.529Z,0.8
2023-03-06T04:32:57.542Z,0.8
2023-03-06T04:33:57.543Z,0.8
2023-03-06T04:34:57.542Z,0.8
2023-03-06T04:35:57.634Z,0.8
2023-03-06T04:36:57.509Z,0.3
2023-03-06T04:37:57.533Z,0.2
2023-03-06T04:38:57.599Z,0.2
2023-03-06T04:39:57.536Z,0.2
2023-03-06T04:40:57.532Z,0.2
2023-03-06T04:41:57.604Z,0.2
2023-03-06T04:42:57.550Z,0.2
2023-03-06T04:43:57.541Z,0.2
2023-03-06T04:44:57.582Z,0.2
2023-03-06T04:45:57.638Z,0.2
2023-03-06T04:46:57.552Z,0.2
2023-03-06T04:47:57.544Z,0.2
2023-03-06T04:48:57.552Z,0.2
2023-03-06T04:49:57.541Z,0.2
2023-03-06T04:50:57.546Z,0.2
2023-03-06T04:51:57.547Z,0.2
2023-03-06T04:52:57.611Z,0.2
2023-03-06T04:53:57.607Z,0.2
2023-03-06T04:54:57.579Z,0.2
2023-03-06T04:55:57.623Z,0.2
2023-03-06T04:56:57.568Z,0.2
2023-03-06T04:57:57.549Z,0.2
2023-03-06T04:58:57.615Z,0.2
2023-03-06T04:59:57.597Z,0.2
2023-03-06T05:00:57.701Z,0.2
2023-03-06T05:01:57.612Z,0.2
2023-03-06T05:02:57.576Z,0.2
2023-03-06T05:03:57.606Z,0.2
2023-03-06T05:04:57.663Z,0.2
2023-03-06T05:05:57.598Z,0.2
2023-03-06T05:06:57.611Z,0.2
2023-03-06T05:07:57.634Z,0.2
2023-03-06T05:08:57.566Z,0.2
2023-03-06T05:09:57.570Z,0.2
2023-03-06T05:10:57.605Z,0.2
2023-03-06T05:11:57.604Z,0.2
2023-03-06T05:12:57.564Z,0.2
2023-03-06T05:13:57.574Z,0.2
2023-03-06T05:14:57.575Z,0.2
2023-03-06T05:15:57.603Z,0.2
2023-03-06T05:16:57.625Z,0.2
2023-03-06T05:17:57.598Z,0.2
2023-03-06T05:18:57.609Z,0.2
2023-03-06T05:19:57.578Z,0.2
2023-03-06T05:20:57.612Z,0.2
2023-03-06T05:21:57.601Z,0.2
2023-03-06T05:22:57.573Z,0.2
2023-03-06T05:23:57.627Z,0.2
2023-03-06T05:24:57.557Z,0.2
2023-03-06T05:25:57.626Z,0.2
2023-03-06T05:26:57.574Z,0.2
2023-03-06T05:27:57.565Z,0.2
2023-03-06T05:28:57.624Z,0.2
2023-03-06T05:29:57.616Z,0.2
2023-03-06T05:30:57.617Z,0.2
2023-03-06T05:31:57.667Z,0.2
2023-03-06T05:32:57.626Z,0.2
2023-03-06T05:33:57.615Z,0.2
2023-03-06T05:34:57.610Z,0.3
2023-03-06T05:35:57.777Z,0.3
2023-03-06T05:36:57.661Z,0.3
2023-03-06T05:37:57.613Z,0.3
2023-03-06T05:38:57.626Z,0.3
2023-03-06T05:39:57.629Z,0.3
2023-03-06T05:40:57.668Z,0.3
2023-03-06T05:41:57.624Z,0.3
2023-03-06T05:42:57.699Z,0.3
2023-03-06T05:43:57.629Z,0.3
2023-03-06T05:44:57.636Z,0.3
2023-03-06T05:45:57.668Z,0.3
2023-03-06T05:46:57.619Z,0.3
2023-03-06T05:47:57.641Z,0.7
2023-03-06T05:48:57.628Z,0.7
2023-03-06T05:49:57.630Z,0.7
2023-03-06T05:50:57.653Z,0.7
2023-03-06T05:51:57.627Z,0.7
2023-03-06T05:52:57.627Z,0.7
2023-03-06T05:53:57.690Z,0.7
2023-03-06T05:54:57.628Z,1.1
2023-03-06T05:55:57.615Z,1.1
2023-03-06T05:56:57.639Z,1.1
2023-03-06T05:57:57.665Z,1.1
2023-03-06T05:58:57.667Z,1.1
2023-03-06T05:59:57.685Z,1.1
2023-03-06T06:00:57.656Z,1.1
2023-03-06T06:01:57.714Z,1.6
2023-03-06T06:02:57.630Z,1.6
2023-03-06T06:03:57.628Z,1.6
2023-03-06T06:04:57.653Z,1.6
2023-03-06T06:05:57.717Z,1.6
2023-03-06T06:06:57.632Z,1.6
2023-03-06T06:07:57.657Z,1.6
2023-03-06T06:08:57.662Z,2.1
2023-03-06T06:09:57.664Z,2.1
2023-03-06T06:10:57.686Z,2.1
2023-03-06T06:11:57.680Z,2.1
2023-03-06T06:12:57.661Z,2.1
2023-03-06T06:13:57.613Z,2.1
2023-03-06T06:14:57.629Z,2.6
2023-03-06T06:15:57.654Z,2.6
2023-03-06T06:16:57.655Z,2.6
2023-03-06T06:17:57.622Z,2.6
2023-03-06T06:18:57.628Z,2.6
2023-03-06T06:19:57.679Z,2.6
2023-03-06T06:20:57.674Z,2.6
2023-03-06T06:21:57.690Z,2.6
2023-03-06T06:22:57.674Z,2.6
2023-03-06T06:23:57.675Z,2.6
2023-03-06T06:24:57.683Z,2.6
2023-03-06T06:25:57.673Z,2.6
2023-03-06T06:26:57.682Z,2.6
2023-03-06T06:27:57.626Z,2.6
2023-03-06T06:28:59.775Z,2.6
2023-03-06T06:29:57.721Z,2.6
2023-03-06T06:30:57.680Z,2.6
2023-03-06T06:31:57.680Z,2.6
2023-03-06T06:32:57.705Z,3.1
2023-03-06T06:33:57.639Z,3.1
2023-03-06T06:34:57.684Z,3.1
2023-03-06T06:35:57.655Z,3.1
2023-03-06T06:36:57.704Z,3.1
2023-03-06T06:37:57.600Z,3.1
2023-03-06T06:38:57.713Z,3.1
2023-03-06T06:39:57.603Z,3.1
2023-03-06T06:41:30.678Z,3.1
2023-03-06T06:42:15.235Z,3.1
2023-03-06T06:42:57.708Z,3.1
2023-03-06T06:43:59.015Z,3.1
2023-03-06T06:44:57.722Z,3.1
2023-03-06T06:46:15.301Z,3.1
2023-03-06T06:47:22.462Z,3.1
2023-03-06T06:47:57.691Z,3.1
2023-03-06T06:48:57.628Z,3.1
2023-03-06T06:49:57.689Z,3.1
2023-03-06T06:50:57.778Z,3.1
2023-03-06T06:51:57.638Z,3.7
2023-03-06T06:52:57.601Z,3.7
2023-03-06T06:53:57.605Z,3.7
2023-03-06T06:54:57.696Z,3.7
2023-03-06T06:55:57.606Z,3.7
2023-03-06T06:56:57.616Z,3.7
2023-03-06T06:57:57.630Z,3.7
2023-03-06T06:59:13.956Z,3.7
2023-03-06T06:59:57.644Z,3.7
2023-03-06T07:00:57.647Z,3.7
2023-03-06T07:01:57.726Z,3.7
2023-03-06T07:02:57.691Z,3.7
2023-03-06T07:03:57.685Z,3.7
2023-03-06T07:05:04.211Z,3.7
2023-03-06T07:05:57.762Z,3.7
2023-03-06T07:06:57.693Z,3.7
2023-03-06T07:07:57.658Z,3.7
2023-03-06T07:08:57.666Z,3.7
2023-03-06T07:09:57.663Z,3.7
2023-03-06T07:10:57.689Z,3.7
2023-03-06T07:11:57.707Z,4.2
2023-03-06T07:12:57.689Z,4.2
2023-03-06T07:13:57.733Z,4.2
2023-03-06T07:14:57.707Z,4.2
2023-03-06T07:15:57.704Z,4.2
2023-03-06T07:16:57.716Z,4.2
2023-03-06T07:17:57.663Z,4.2
2023-03-06T07:18:57.650Z,4.2
2023-03-06T07:19:57.739Z,4.2
2023-03-06T07:20:59.263Z,4.2
2023-03-06T07:21:57.736Z,4.2
2023-03-06T07:22:57.734Z,4.2
2023-03-06T07:23:57.730Z,4.2
2023-03-06T07:24:57.666Z,4.2
2023-03-06T07:25:57.697Z,4.2
2023-03-06T07:26:57.674Z,4.6
2023-03-06T07:27:57.733Z,4.6
2023-03-06T07:28:57.701Z,4.6
2023-03-06T07:29:57.705Z,4.6
2023-03-06T07:30:57.742Z,4.7
2023-03-06T07:31:57.697Z,4.7
2023-03-06T07:32:57.673Z,4.7
2023-03-06T07:33:57.660Z,4.7
2023-03-06T07:35:13.688Z,4.7
2023-03-06T07:35:57.723Z,4.7
2023-03-06T07:36:57.667Z,4.7
2023-03-06T07:37:57.712Z,4.7
2023-03-06T07:38:57.710Z,4.7
2023-03-06T07:39:57.712Z,4.7
2023-03-06T07:40:57.721Z,4.7
2023-03-06T07:41:57.673Z,4.7
2023-03-06T07:43:06.229Z,4.7
2023-03-06T07:43:57.700Z,4.7
2023-03-06T07:44:57.666Z,4.7
2023-03-06T07:45:57.702Z,4.7
2023-03-06T07:46:57.673Z,4.7
2023-03-06T07:47:57.706Z,4.7
2023-03-06T07:48:57.663Z,4.7
2023-03-06T07:49:57.681Z,4.7
2023-03-06T07:50:57.708Z,4.7
2023-03-06T07:51:57.721Z,4.7
2023-03-06T07:52:57.682Z,4.7
2023-03-06T07:53:57.666Z,4.7
2023-03-06T07:54:57.680Z,5.2
2023-03-06T07:55:57.666Z,5.2
2023-03-06T07:56:57.706Z,5.2
2023-03-06T07:57:57.730Z,5.2
2023-03-06T07:58:57.705Z,5.2
2023-03-06T07:59:57.669Z,5.2
2023-03-06T08:00:58.753Z,5.2
2023-03-06T08:01:57.766Z,5.2
2023-03-06T08:02:57.686Z,5.2
2023-03-06T08:03:57.845Z,5.2
2023-03-06T08:04:57.740Z,5.2
2023-03-06T08:05:57.717Z,5.2
2023-03-06T08:06:57.731Z,5.2
2023-03-06T08:07:57.718Z,5.2
2023-03-06T08:08:57.724Z,5.2
2023-03-06T08:09:57.727Z,5.2
2023-03-06T08:10:57.713Z,5.2
2023-03-06T08:11:57.681Z,5.2
2023-03-06T08:12:57.697Z,5.2
2023-03-06T08:13:57.734Z,5.2
2023-03-06T08:14:57.699Z,5.2
2023-03-06T08:15:57.803Z,5.2
2023-03-06T08:16:57.681Z,5.2
2023-03-06T08:17:57.683Z,5.2
2023-03-06T08:18:57.757Z,5.2
2023-03-06T08:19:57.722Z,5.2
2023-03-06T08:20:57.725Z,5.2
2023-03-06T08:21:57.746Z,5.5
2023-03-06T08:22:57.724Z,5.5
2023-03-06T08:23:57.680Z,5.5
2023-03-06T08:24:57.774Z,5.5
2023-03-06T08:25:57.737Z,5.5
2023-03-06T08:26:57.735Z,5.5
2023-03-06T08:27:57.729Z,5.5
2023-03-06T08:28:57.712Z,5.5
2023-03-06T08:29:57.690Z,5.5
2023-03-06T08:30:57.947Z,5.5
2023-03-06T08:31:57.743Z,5.5
2023-03-06T08:32:57.782Z,5.5
2023-03-06T08:33:57.744Z,5.5
2023-03-06T08:34:57.777Z,5.5
2023-03-06T08:35:57.846Z,5.5
2023-03-06T08:36:57.742Z,5.5
2023-03-06T08:37:57.750Z,5.5
2023-03-06T08:38:57.739Z,5.5
2023-03-06T08:39:57.736Z,5.7
2023-03-06T08:40:57.749Z,5.7
2023-03-06T08:41:57.789Z,5.7
2023-03-06T08:42:57.746Z,5.7
2023-03-06T08:43:57.752Z,5.7
2023-03-06T08:44:57.752Z,5.7
2023-03-06T08:45:57.843Z,5.7
2023-03-06T08:46:57.719Z,5.7
2023-03-06T08:47:57.779Z,5.7
2023-03-06T08:48:57.774Z,5.7
2023-03-06T08:49:59.417Z,5.7
2023-03-06T08:50:57.764Z,5.7
2023-03-06T08:51:57.842Z,6.2
2023-03-06T08:52:57.783Z,6.2
2023-03-06T08:53:57.813Z,6.2
2023-03-06T08:54:57.815Z,6.2
2023-03-06T08:55:57.791Z,6.2
2023-03-06T08:56:57.787Z,6.2
2023-03-06T08:57:57.787Z,6.2
2023-03-06T08:58:57.810Z,6.2
2023-03-06T08:59:57.783Z,6.2
2023-03-06T09:00:58.034Z,6.2
2023-03-06T09:01:57.873Z,6.8
2023-03-06T09:02:57.810Z,6.8
2023-03-06T09:03:57.817Z,6.8
2023-03-06T09:04:57.765Z,6.8
2023-03-06T09:05:57.795Z,6.8
2023-03-06T09:06:57.792Z,6.8
2023-03-06T09:07:57.761Z,6.8
2023-03-06T09:08:57.779Z,7.3
2023-03-06T09:09:57.765Z,7.3
2023-03-06T09:10:57.822Z,7.3
2023-03-06T09:11:57.788Z,7.3
2023-03-06T09:12:57.794Z,7.3
2023-03-06T09:13:57.761Z,7.3
2023-03-06T09:14:57.765Z,7.5
2023-03-06T09:15:57.863Z,7.5
2023-03-06T09:16:57.838Z,7.5
2023-03-06T09:17:58.122Z,7.5
2023-03-06T09:18:57.812Z,7.5
2023-03-06T09:19:57.773Z,7.5
2023-03-06T09:20:57.765Z,7.5
2023-03-06T09:21:57.797Z,7.5
2023-03-06T09:22:57.819Z,7.5
2023-03-06T09:23:57.782Z,7.5
2023-03-06T09:25:00.843Z,7.5
2023-03-06T09:25:57.796Z,7.5
2023-03-06T09:26:57.822Z,7.5
2023-03-06T09:28:10.548Z,7.5
2023-03-06T09:28:57.783Z,7.5
2023-03-06T09:29:57.814Z,7.5
2023-03-06T09:30:57.884Z,7.5
2023-03-06T09:31:57.793Z,7.5
2023-03-06T09:32:57.826Z,7.5
2023-03-06T09:33:57.775Z,7.8
2023-03-06T09:34:57.856Z,7.8
2023-03-06T09:35:57.801Z,7.8
2023-03-06T09:36:57.852Z,7.8
2023-03-06T09:37:57.854Z,7.8
2023-03-06T09:38:57.820Z,7.8
2023-03-06T09:39:57.840Z,8.2
2023-03-06T09:40:57.776Z,8.2
2023-03-06T09:41:57.779Z,8.2
2023-03-06T09:42:57.782Z,8.2
2023-03-06T09:43:57.838Z,8.2
2023-03-06T09:44:57.772Z,8.2
2023-03-06T09:45:57.870Z,8.2
2023-03-06T09:46:57.815Z,8.2
2023-03-06T09:47:57.782Z,8.7
2023-03-06T09:48:57.768Z,8.7
2023-03-06T09:49:57.866Z,8.7
2023-03-06T09:50:58.868Z,8.7
2023-03-06T09:51:57.769Z,8.7
2023-03-06T09:52:57.810Z,8.7
2023-03-06T09:53:57.772Z,8.7
2023-03-06T09:54:57.813Z,9
2023-03-06T09:55:57.811Z,9
2023-03-06T09:56:57.783Z,9
2023-03-06T09:57:57.823Z,9
2023-03-06T09:58:57.800Z,9
2023-03-06T09:59:57.818Z,9
2023-03-06T10:00:57.809Z,9
2023-03-06T10:01:57.804Z,9
2023-03-06T10:02:57.949Z,9
2023-03-06T10:03:57.773Z,9
2023-03-06T10:04:57.808Z,9
2023-03-06T10:05:57.839Z,9
2023-03-06T10:06:57.778Z,9
2023-03-06T10:07:57.848Z,9
2023-03-06T10:08:57.800Z,9
2023-03-06T10:09:57.786Z,9
2023-03-06T10:10:57.783Z,9
2023-03-06T10:11:57.786Z,9
2023-03-06T10:12:57.833Z,9
2023-03-06T10:13:57.830Z,9.3
2023-03-06T10:14:57.833Z,9.3
2023-03-06T10:15:57.923Z,9.3
2023-03-06T10:16:57.850Z,9.4
2023-03-06T10:17:57.801Z,9.4
2023-03-06T10:18:57.788Z,9.4
2023-03-06T10:19:57.787Z,9.4
2023-03-06T10:21:00.947Z,9.4
2023-03-06T10:21:57.842Z,9.4
2023-03-06T10:23:01.051Z,9.4
2023-03-06T10:23:57.807Z,9.4
2023-03-06T10:24:57.842Z,9.4
2023-03-06T10:25:57.789Z,9.4
2023-03-06T10:26:57.897Z,9.4
2023-03-06T10:27:57.848Z,9.4
2023-03-06T10:28:57.786Z,9.4
2023-03-06T10:30:03.187Z,9.4
2023-03-06T10:30:57.875Z,9.4
2023-03-06T10:31:57.811Z,9.4
2023-03-06T10:32:57.905Z,9.4
2023-03-06T10:33:57.790Z,9.4
2023-03-06T10:34:57.961Z,9.4
2023-03-06T10:35:57.882Z,9.4
2023-03-06T10:36:57.811Z,9.4
2023-03-06T10:37:57.800Z,9.7
2023-03-06T10:38:57.816Z,9.7
2023-03-06T10:39:57.796Z,9.7
2023-03-06T10:40:57.801Z,9.7
2023-03-06T10:41:57.817Z,9.7
2023-03-06T10:43:10.795Z,9.7
2023-03-06T10:43:57.797Z,9.7
2023-03-06T10:44:57.816Z,9.7
2023-03-06T10:45:57.899Z,9.7
2023-03-06T10:46:57.842Z,9.7
2023-03-06T10:47:57.855Z,9.7
2023-03-06T10:48:57.795Z,9.7
2023-03-06T10:49:57.850Z,9.7
2023-03-06T10:50:58.657Z,9.9
2023-03-06T10:51:57.802Z,9.9
2023-03-06T10:52:57.813Z,9.9
2023-03-06T10:53:57.867Z,9.9
2023-03-06T10:54:57.843Z,9.9
2023-03-06T10:55:57.818Z,9.9
2023-03-06T10:56:57.814Z,9.9
2023-03-06T10:57:57.808Z,9.9
2023-03-06T10:58:57.798Z,9.9
2023-03-06T10:59:57.853Z,9.9
2023-03-06T11:00:57.851Z,9.9
2023-03-06T11:01:57.915Z,9.9
2023-03-06T11:02:57.798Z,10.2
2023-03-06T11:03:57.812Z,10.2
2023-03-06T11:04:57.839Z,10.2
2023-03-06T11:05:57.820Z,10.2
2023-03-06T11:06:57.857Z,10.2
2023-03-06T11:07:57.859Z,10.2
2023-03-06T11:08:57.812Z,10.3
2023-03-06T11:09:57.825Z,10.3
2023-03-06T11:10:57.816Z,10.3
2023-03-06T11:11:57.806Z,10.3
2023-03-06T11:12:57.807Z,10.3
2023-03-06T11:13:57.862Z,10.3
2023-03-06T11:14:57.887Z,10.3
2023-03-06T11:15:57.904Z,10.3
2023-03-06T11:16:57.800Z,10.3
2023-03-06T11:17:57.934Z,10.3
2023-03-06T11:18:57.865Z,10.3
2023-03-06T11:19:57.865Z,10.3
2023-03-06T11:20:57.813Z,10.3
2023-03-06T11:21:57.808Z,10.3
2023-03-06T11:22:57.916Z,10.3
2023-03-06T11:23:57.805Z,10.3
2023-03-06T11:24:57.858Z,10.3
2023-03-06T11:25:57.802Z,10.3
2023-03-06T11:26:57.805Z,10.3
2023-03-06T11:27:57.873Z,10.3
2023-03-06T11:28:58.053Z,10.3
2023-03-06T11:29:57.869Z,10.3
2023-03-06T11:30:57.863Z,10.3
2023-03-06T11:31:57.870Z,10.3
2023-03-06T11:32:57.863Z,10.3
2023-03-06T11:33:57.814Z,10.3
2023-03-06T11:34:57.818Z,10.5
2023-03-06T11:35:57.900Z,10.5
2023-03-06T11:36:57.813Z,10.5
2023-03-06T11:37:57.865Z,10.5
2023-03-06T11:38:57.866Z,10.5
2023-03-06T11:39:57.874Z,10.5
2023-03-06T11:40:57.861Z,10.5
2023-03-06T11:41:57.821Z,10.5
2023-03-06T11:42:57.878Z,10.5
2023-03-06T11:43:57.878Z,10.5
2023-03-06T11:44:57.908Z,10.5
2023-03-06T11:45:57.819Z,10.5
2023-03-06T11:46:57.946Z,10.5
2023-03-06T11:47:57.864Z,10.5
2023-03-06T11:48:57.837Z,10.5
2023-03-06T11:49:57.859Z,10.6
2023-03-06T11:50:57.856Z,10.6
2023-03-06T11:51:57.884Z,10.6
2023-03-06T11:52:57.837Z,10.6
2023-03-06T11:53:57.816Z,10.6
2023-03-06T11:54:57.883Z,10.6
2023-03-06T11:55:57.859Z,10.6
2023-03-06T11:56:57.873Z,10.6
2023-03-06T11:57:57.883Z,10.6
2023-03-06T11:58:57.910Z,10.6
2023-03-06T11:59:57.882Z,10.6
2023-03-06T12:00:57.877Z,10.6
2023-03-06T12:01:57.926Z,10.6
2023-03-06T12:02:57.899Z,10.6
2023-03-06T12:03:57.943Z,10.6
2023-03-06T12:04:57.989Z,10.8
2023-03-06T12:05:57.842Z,10.8
2023-03-06T12:06:57.865Z,10.8
2023-03-06T12:07:57.840Z,10.8
2023-03-06T12:08:57.832Z,10.8
2023-03-06T12:09:57.837Z,10.8
2023-03-06T12:10:57.881Z,11.1
2023-03-06T12:11:57.874Z,11.1
2023-03-06T12:12:57.872Z,11.1
2023-03-06T12:13:58.968Z,11.1
2023-03-06T12:14:57.845Z,11.1
2023-03-06T12:15:57.837Z,11.1
2023-03-06T12:16:57.880Z,11.1
2023-03-06T12:17:57.879Z,11.1
2023-03-06T12:18:57.879Z,11.1
2023-03-06T12:19:57.847Z,11.1
2023-03-06T12:20:57.848Z,11.1
2023-03-06T12:21:57.909Z,11.3
2023-03-06T12:23:14.158Z,11.3
2023-03-06T12:23:57.898Z,11.3
2023-03-06T12:24:57.886Z,11.3
2023-03-06T12:25:57.864Z,11.3
2023-03-06T12:26:57.892Z,11.3
2023-03-06T12:27:57.920Z,11.3
2023-03-06T12:28:57.944Z,11.3
2023-03-06T12:29:57.903Z,11.3
2023-03-06T12:30:57.880Z,11.3
2023-03-06T12:31:57.930Z,11.3
2023-03-06T12:32:57.891Z,11.3
2023-03-06T12:33:57.888Z,11.3
2023-03-06T12:34:57.956Z,11.3
2023-03-06T12:35:57.927Z,11.3
2023-03-06T12:36:57.899Z,11.3
2023-03-06T12:37:57.899Z,11.3
2023-03-06T12:38:57.932Z,11.3
2023-03-06T12:39:57.900Z,11.3
2023-03-06T12:40:57.895Z,11.3
2023-03-06T12:41:57.903Z,11.3
2023-03-06T12:42:57.898Z,11.3
2023-03-06T12:43:57.885Z,11.3
2023-03-06T12:44:57.931Z,11.3
2023-03-06T12:45:57.937Z,11.3
2023-03-06T12:46:57.895Z,11.6
2023-03-06T12:47:57.899Z,11.6
2023-03-06T12:48:57.894Z,11.6
2023-03-06T12:49:57.902Z,11.6
2023-03-06T12:50:57.951Z,11.6
2023-03-06T12:51:57.901Z,11.6
2023-03-06T12:52:57.909Z,11.6
2023-03-06T12:53:57.938Z,11.6
2023-03-06T12:54:57.906Z,11.6
2023-03-06T12:55:59.929Z,11.6
2023-03-06T12:56:57.956Z,11.6
2023-03-06T12:57:57.907Z,11.8
2023-03-06T12:58:57.911Z,11.8
2023-03-06T12:59:57.893Z,11.8
2023-03-06T13:01:03.502Z,11.8
2023-03-06T13:01:57.983Z,11.8
2023-03-06T13:02:57.893Z,11.8
2023-03-06T13:03:57.911Z,11.8
2023-03-06T13:04:57.945Z,11.8
2023-03-06T13:05:58.158Z,11.8
2023-03-06T13:06:57.972Z,11.8
2023-03-06T13:07:57.945Z,11.8
2023-03-06T13:08:57.930Z,11.8
2023-03-06T13:09:57.915Z,11.8
2023-03-06T13:10:57.899Z,11.8
2023-03-06T13:11:57.930Z,11.8
2023-03-06T13:12:57.939Z,11.8
2023-03-06T13:13:57.958Z,11.8
2023-03-06T13:14:57.916Z,11.8
2023-03-06T13:15:57.924Z,11.8
2023-03-06T13:16:58.008Z,11.8
2023-03-06T13:17:57.945Z,11.8
2023-03-06T13:18:57.896Z,11.8
2023-03-06T13:19:57.921Z,11.8
2023-03-06T13:20:57.907Z,11.8
2023-03-06T13:21:57.902Z,11.8
2023-03-06T13:22:57.946Z,11.8
2023-03-06T13:23:57.937Z,11.8
2023-03-06T13:25:06.834Z,11.8
2023-03-06T13:25:57.958Z,11.8
2023-03-06T13:26:57.888Z,11.8
2023-03-06T13:27:57.886Z,11.8
2023-03-06T13:28:57.947Z,11.8
2023-03-06T13:29:57.988Z,11.8
2023-03-06T13:30:57.990Z,11.8
2023-03-06T13:31:57.883Z,11.8
2023-03-06T13:32:57.925Z,11.8
2023-03-06T13:33:57.935Z,11
2023-03-06T13:34:57.967Z,11
2023-03-06T13:35:58.048Z,11
2023-03-06T13:36:57.923Z,11
2023-03-06T13:37:57.945Z,11
2023-03-06T13:38:57.897Z,11
2023-03-06T13:39:59.952Z,11
2023-03-06T13:40:58.177Z,11
2023-03-06T13:41:57.924Z,11
2023-03-06T13:42:57.917Z,11